Time;durP1;ratioP1;P1;durP2;ratioP2;P2;SDS_P1;SDS_P2;PMS_P1;PMS_P2;Temp;Humidity;BMP_temperature;BMP_pressure;BME280_temperature;BME280_humidity;BME280_pressure;Samples;Min_cycle;Max_cycle;Signal;HPM_P1;HPM_P2
2020/12/12 00:02:42;;;;;;;1.10;1.00;;;;;;;6.21;88.63;96996.75;2304543;69;20284;-81
2020/12/12 00:05:43;;;;;;;1.94;1.04;;;;;;;6.26;88.53;97001.78;2301473;69;20314;-81
2020/12/12 00:08:45;;;;;;;0.82;0.82;;;;;;;6.26;88.42;96997.47;2301209;69;20388;-81
2020/12/12 00:11:49;;;;;;;1.01;1.01;;;;;;;6.26;88.40;96991.47;2303442;69;20414;-81
2020/12/12 00:14:51;;;;;;;1.66;1.08;;;;;;;6.27;88.42;96985.44;2302968;69;20305;-81
2020/12/12 00:17:53;;;;;;;1.44;1.25;;;;;;;6.28;88.42;96988.00;2300251;69;20301;-81
2020/12/12 00:20:55;;;;;;;1.56;1.25;;;;;;;6.28;88.38;96979.41;2299153;69;20526;-81
2020/12/12 00:23:56;;;;;;;1.67;1.31;;;;;;;6.25;88.28;96975.16;2298796;69;20324;-81
2020/12/12 00:26:58;;;;;;;1.20;1.10;;;;;;;6.25;88.49;96980.31;2303038;69;20376;-80
2020/12/12 00:30:00;;;;;;;1.40;1.30;;;;;;;6.24;88.34;96980.38;2301403;69;20285;-81
2020/12/12 00:33:02;;;;;;;1.27;1.00;;;;;;;6.25;88.55;96988.06;2298191;69;20440;-81
2020/12/12 00:36:04;;;;;;;1.56;1.21;;;;;;;6.22;88.46;96987.28;2293910;70;20285;-81
2020/12/12 00:39:06;;;;;;;1.39;1.29;;;;;;;6.21;88.69;96988.19;2292914;70;20302;-81
2020/12/12 00:42:07;;;;;;;1.20;1.10;;;;;;;6.23;88.86;96991.56;2294523;70;20309;-81
2020/12/12 00:45:09;;;;;;;1.10;1.00;;;;;;;6.25;88.73;96994.94;2295694;70;20314;-81
2020/12/12 00:48:11;;;;;;;2.78;1.21;;;;;;;6.23;88.73;96983.84;2299223;70;20347;-82
2020/12/12 00:51:12;;;;;;;1.46;1.33;;;;;;;6.21;88.72;96986.44;2295292;70;20298;-81
2020/12/12 00:54:14;;;;;;;1.61;1.24;;;;;;;6.25;88.71;96982.91;2299559;70;20146;-81
2020/12/12 00:57:17;;;;;;;1.14;1.04;;;;;;;6.27;88.64;96990.59;2299976;70;20330;-82
2020/12/12 01:00:19;;;;;;;1.08;1.02;;;;;;;6.26;88.71;96987.16;2297299;70;20290;-81
2020/12/12 01:03:20;;;;;;;1.29;1.00;;;;;;;6.27;88.74;96991.44;2299087;70;20293;-82
2020/12/12 01:06:22;;;;;;;1.73;1.34;;;;;;;6.27;88.76;96995.75;2297801;70;20342;-81
2020/12/12 01:09:23;;;;;;;1.77;1.21;;;;;;;6.24;88.79;96995.81;2299546;70;20404;-82
2020/12/12 01:12:25;;;;;;;1.16;1.04;;;;;;;6.26;88.87;96994.91;2298550;70;20286;-82
2020/12/12 01:15:27;;;;;;;1.27;0.91;;;;;;;6.27;88.88;97001.75;2297516;70;20321;-81
2020/12/12 01:18:28;;;;;;;1.11;1.01;;;;;;;6.28;88.94;96998.31;2295066;70;20290;-82
2020/12/12 01:21:31;;;;;;;1.16;1.06;;;;;;;6.30;88.90;96987.97;2299346;70;20329;-81
2020/12/12 01:24:33;;;;;;;1.71;0.90;;;;;;;6.30;88.77;96991.38;2299776;70;20339;-83
2020/12/12 01:27:34;;;;;;;1.36;1.10;;;;;;;6.31;88.76;96990.50;2300021;70;20302;-82
2020/12/12 01:30:37;;;;;;;1.16;1.00;;;;;;;6.31;88.75;96987.91;2296677;70;20298;-82
2020/12/12 01:33:39;;;;;;;1.96;1.35;;;;;;;6.30;88.72;96993.13;2301892;70;20302;-82
2020/12/12 01:36:41;;;;;;;2.13;1.09;;;;;;;6.30;88.80;96985.38;2302731;70;20289;-82
2020/12/12 01:39:42;;;;;;;1.73;1.17;;;;;;;6.33;88.91;96995.59;2300835;70;20281;-83
2020/12/12 01:42:44;;;;;;;1.44;0.89;;;;;;;6.33;88.74;96993.88;2299124;70;20301;-82
2020/12/12 01:45:46;;;;;;;2.04;1.30;;;;;;;6.33;88.74;97004.19;2298613;70;20311;-83
2020/12/12 01:48:50;;;;;;;2.00;1.40;;;;;;;6.33;88.77;97004.19;2303156;70;20320;-82
2020/12/12 01:51:52;;;;;;;2.34;1.58;;;;;;;6.34;88.82;96992.13;2301516;70;20289;-81
2020/12/12 01:54:54;;;;;;;2.19;1.55;;;;;;;6.32;88.80;96992.19;2299625;70;20464;-81
2020/12/12 01:57:56;;;;;;;1.70;1.60;;;;;;;6.34;88.86;96997.28;2298325;70;20286;-80
2020/12/12 02:01:16;;;;;;;2.45;1.59;;;;;;;6.32;88.96;96988.75;2298243;70;20341;-82
2020/12/12 02:04:23;;;;;;;1.55;1.41;;;;;;;6.31;89.00;96998.22;2297523;70;20478;-81
2020/12/12 02:07:25;;;;;;;1.83;1.30;;;;;;;6.31;89.10;96997.38;2294968;70;20282;-81
2020/12/12 02:10:27;;;;;;;1.71;1.48;;;;;;;6.31;89.17;96999.97;2298130;70;20286;-81
2020/12/12 02:13:28;;;;;;;1.11;1.01;;;;;;;6.31;89.11;97002.53;2296964;70;20333;-81
2020/12/12 02:16:30;;;;;;;1.89;1.06;;;;;;;6.32;89.27;97005.06;2299192;70;20358;-81
2020/12/12 02:19:32;;;;;;;1.44;1.17;;;;;;;6.31;89.33;97000.81;2297502;70;20518;-82
2020/12/12 02:22:34;;;;;;;2.70;1.10;;;;;;;6.31;89.33;97003.38;2295289;70;20294;-82
2020/12/12 02:25:36;;;;;;;1.25;1.10;;;;;;;6.31;89.41;97008.53;2293951;70;20313;-81
2020/12/12 02:28:46;;;;;;;1.99;0.96;;;;;;;6.33;89.51;97008.50;2296196;70;20309;-82
2020/12/12 02:31:48;;;;;;;1.11;1.01;;;;;;;6.34;89.64;97008.44;2294036;70;20286;-81
2020/12/12 02:34:50;;;;;;;1.99;1.00;;;;;;;6.35;89.56;97006.72;2293437;70;20313;-81
2020/12/12 02:37:51;;;;;;;1.02;0.88;;;;;;;6.35;89.62;97004.13;2294595;70;20347;-82
2020/12/12 02:40:53;;;;;;;2.22;0.98;;;;;;;6.34;89.65;97005.03;2293184;70;20323;-80
2020/12/12 02:43:54;;;;;;;0.80;0.80;;;;;;;6.34;89.84;97007.59;2295796;70;20773;-82
2020/12/12 02:46:56;;;;;;;0.89;0.89;;;;;;;6.35;89.93;97009.28;2296402;70;20315;-81
2020/12/12 02:50:09;;;;;;;0.85;0.70;;;;;;;6.35;89.88;97006.72;2294552;70;20302;-80
2020/12/12 02:53:11;;;;;;;0.74;0.70;;;;;;;6.36;89.89;97011.81;2298027;70;20289;-82
2020/12/12 02:56:14;;;;;;;0.96;0.64;;;;;;;6.39;89.92;97016.06;2299910;70;20313;-81
2020/12/12 02:59:16;;;;;;;0.94;0.60;;;;;;;6.40;89.86;97004.84;2298780;70;20297;-81
2020/12/12 03:02:17;;;;;;;0.82;0.60;;;;;;;6.42;89.98;97007.38;2294608;70;20325;-82
2020/12/12 03:05:19;;;;;;;0.70;0.70;;;;;;;6.42;90.02;97008.22;2295250;70;20307;-81
2020/12/12 03:08:21;;;;;;;1.50;1.02;;;;;;;6.42;89.97;97009.97;2298158;70;20363;-81
2020/12/12 03:11:22;;;;;;;1.21;1.11;;;;;;;6.43;89.97;97007.34;2295534;70;20329;-81
2020/12/12 03:14:24;;;;;;;1.17;1.00;;;;;;;6.44;90.03;97013.34;2294844;70;20678;-81
2020/12/12 03:17:25;;;;;;;1.24;1.14;;;;;;;6.41;90.13;97014.28;2299087;70;20257;-81
2020/12/12 03:20:27;;;;;;;1.17;1.08;;;;;;;6.43;90.25;97020.22;2297596;70;20290;-81
2020/12/12 03:23:29;;;;;;;1.26;1.16;;;;;;;6.42;90.34;97028.00;2293894;70;20309;-81
2020/12/12 03:26:30;;;;;;;1.31;1.21;;;;;;;6.43;90.38;97021.97;2297225;70;20311;-81
2020/12/12 03:29:32;;;;;;;1.34;1.16;;;;;;;6.43;90.45;97029.69;2296330;70;20329;-81
2020/12/12 03:32:38;;;;;;;1.20;1.10;;;;;;;6.42;90.36;97021.13;2289961;70;20311;-81
2020/12/12 03:35:40;;;;;;;1.58;1.48;;;;;;;6.43;90.38;97024.53;2298059;70;20401;-82
2020/12/12 03:38:41;;;;;;;1.83;1.20;;;;;;;6.42;90.37;97026.28;2299083;70;20329;-82
2020/12/12 03:41:43;;;;;;;1.50;1.38;;;;;;;6.43;90.32;97030.53;2298083;70;20318;-82
2020/12/12 03:44:45;;;;;;;1.50;1.00;;;;;;;6.43;90.25;97025.38;2293543;70;20309;-80
2020/12/12 03:47:48;;;;;;;1.24;1.11;;;;;;;6.43;90.24;97027.13;2294242;70;20323;-82
2020/12/12 03:50:49;;;;;;;1.06;1.00;;;;;;;6.44;90.21;97031.38;2295213;70;20343;-81
2020/12/12 03:53:51;;;;;;;0.98;0.98;;;;;;;6.45;90.30;97033.91;2298346;70;20294;-83
2020/12/12 03:56:53;;;;;;;1.10;1.00;;;;;;;6.45;90.23;97030.50;2298444;70;20293;-82
2020/12/12 03:59:55;;;;;;;0.90;0.90;;;;;;;6.43;90.27;97038.28;2301478;70;20238;-82
2020/12/12 04:02:57;;;;;;;1.54;0.90;;;;;;;6.43;90.40;97040.84;2298162;70;20319;-80
2020/12/12 04:05:58;;;;;;;0.90;0.90;;;;;;;6.45;90.45;97040.81;2299491;70;20311;-81
2020/12/12 04:09:00;;;;;;;0.91;0.81;;;;;;;6.44;90.48;97037.38;2302660;70;20310;-82
2020/12/12 04:12:02;;;;;;;0.90;0.90;;;;;;;6.44;90.50;97041.69;2297539;70;20353;-81
2020/12/12 04:15:04;;;;;;;0.99;0.94;;;;;;;6.42;90.44;97041.75;2300054;70;20294;-82
2020/12/12 04:18:05;;;;;;;1.09;0.94;;;;;;;6.42;90.53;97046.06;2297232;70;20346;-81
2020/12/12 04:21:08;;;;;;;1.15;1.05;;;;;;;6.42;90.54;97046.06;2296159;70;20297;-81
2020/12/12 04:24:09;;;;;;;1.54;0.90;;;;;;;6.39;90.45;97046.97;2296715;70;20289;-81
2020/12/12 04:27:11;;;;;;;0.90;0.90;;;;;;;6.39;90.52;97051.28;2292884;70;20294;-82
2020/12/12 04:30:13;;;;;;;1.01;1.01;;;;;;;6.40;90.58;97053.81;2295357;70;20289;-82
2020/12/12 04:33:15;;;;;;;1.41;0.95;;;;;;;6.40;90.59;97055.56;2297429;70;20319;-81
2020/12/12 04:36:16;;;;;;;1.10;1.00;;;;;;;6.40;90.58;97058.97;2302221;70;20315;-82
2020/12/12 04:39:20;;;;;;;1.70;1.11;;;;;;;6.39;90.60;97059.88;2301504;70;20298;-81
2020/12/12 04:42:22;;;;;;;0.91;0.90;;;;;;;6.39;90.57;97062.44;2295753;70;20286;-82
2020/12/12 04:45:25;;;;;;;2.03;1.08;;;;;;;6.38;90.54;97060.75;2295686;70;20299;-81
2020/12/12 04:48:27;;;;;;;1.31;1.20;;;;;;;6.40;90.59;97071.03;2295590;70;20335;-81
2020/12/12 04:51:28;;;;;;;1.10;0.98;;;;;;;6.40;90.62;97071.03;2296670;70;20282;-81
2020/12/12 04:54:34;;;;;;;1.59;1.25;;;;;;;6.40;90.66;97071.88;2294135;70;20323;-82
2020/12/12 04:57:37;;;;;;;1.52;1.29;;;;;;;6.41;90.74;97064.97;2299909;70;20294;-81
2020/12/12 05:00:42;;;;;;;2.20;1.10;;;;;;;6.42;90.78;97072.66;2296229;70;20406;-81
2020/12/12 05:03:45;;;;;;;0.96;0.94;;;;;;;6.42;90.74;97070.09;2296801;70;20306;-82
2020/12/12 05:06:47;;;;;;;1.17;1.08;;;;;;;6.42;90.67;97076.97;2296552;70;20679;-81
2020/12/12 05:09:48;;;;;;;1.60;1.50;;;;;;;6.40;90.64;97083.91;2296072;70;20363;-80
2020/12/12 05:12:51;;;;;;;1.80;1.42;;;;;;;6.37;90.75;97079.69;2291612;70;20285;-81
2020/12/12 05:15:54;;;;;;;1.48;1.38;;;;;;;6.40;91.00;97079.59;2295701;70;20315;-81
2020/12/12 05:18:56;;;;;;;1.76;1.46;;;;;;;6.43;91.06;97081.25;2299094;70;20320;-81
2020/12/12 05:22:01;;;;;;;1.50;1.40;;;;;;;6.45;91.08;97082.06;2298417;70;20297;-82
2020/12/12 05:25:03;;;;;;;2.41;1.90;;;;;;;6.43;90.92;97084.66;2296006;70;20367;-81
2020/12/12 05:28:06;;;;;;;1.58;1.48;;;;;;;6.44;91.09;97088.09;2293041;70;20842;-81
2020/12/12 05:31:09;;;;;;;1.40;1.24;;;;;;;6.46;91.16;97091.47;2295020;70;20286;-81
2020/12/12 05:34:15;;;;;;;1.70;1.56;;;;;;;6.46;91.08;97088.91;2294456;70;20313;-81
2020/12/12 05:37:17;;;;;;;2.55;1.39;;;;;;;6.48;91.06;97089.75;2293454;70;20321;-81
2020/12/12 05:40:19;;;;;;;1.55;1.45;;;;;;;6.48;91.16;97085.44;2291584;70;20756;-81
2020/12/12 05:43:35;;;;;;;1.56;1.39;;;;;;;6.47;91.00;97088.03;2295674;70;20321;-81
2020/12/12 05:46:38;;;;;;;1.54;1.44;;;;;;;6.49;91.14;97089.69;2295534;70;20606;-80
2020/12/12 05:49:45;;;;;;;2.59;1.70;;;;;;;6.50;91.23;97090.53;2293051;70;20297;-81
2020/12/12 05:52:51;;;;;;;1.38;1.27;;;;;;;6.53;91.30;97096.47;2293169;70;20708;-81
2020/12/12 05:55:56;;;;;;;1.66;1.50;;;;;;;6.55;91.20;97105.00;2296366;70;20337;-81
2020/12/12 05:58:59;;;;;;;1.49;1.39;;;;;;;6.55;91.17;97107.56;2295905;70;21062;-81
2020/12/12 06:02:04;;;;;;;1.48;1.38;;;;;;;6.58;91.21;97110.06;2295067;70;20278;-81
2020/12/12 06:05:07;;;;;;;2.55;1.11;;;;;;;6.60;91.14;97112.59;2295394;70;20695;-81
2020/12/12 06:08:12;;;;;;;1.35;1.25;;;;;;;6.59;91.00;97109.19;2292549;70;20319;-80
2020/12/12 06:11:15;;;;;;;1.58;1.40;;;;;;;6.62;91.04;97116.84;2290804;70;20347;-80
2020/12/12 06:14:19;;;;;;;2.47;1.48;;;;;;;6.62;91.05;97119.41;2289092;70;20298;-82
2020/12/12 06:17:35;;;;;;;2.00;1.49;;;;;;;6.65;91.11;97114.19;2287692;70;20278;-81
2020/12/12 06:20:38;;;;;;;1.49;1.39;;;;;;;6.66;90.94;97118.47;2288292;70;20353;-80
2020/12/12 06:23:41;;;;;;;1.50;1.40;;;;;;;6.68;91.07;97123.59;2288423;70;20402;-81
2020/12/12 06:26:43;;;;;;;1.60;1.50;;;;;;;6.70;91.10;97129.56;2289704;70;20526;-81
2020/12/12 06:29:47;;;;;;;1.85;1.75;;;;;;;6.74;91.16;97148.38;2292085;70;20410;-82
2020/12/12 06:32:49;;;;;;;1.95;1.70;;;;;;;6.75;91.07;97145.75;2291447;70;20286;-81
2020/12/12 06:35:50;;;;;;;1.75;1.39;;;;;;;6.75;91.01;97142.31;2292423;70;20352;-81
2020/12/12 06:39:19;;;;;;;1.42;1.33;;;;;;;6.77;91.09;97149.13;2294246;70;20285;-81
2020/12/12 06:42:41;;;;;;;1.39;1.24;;;;;;;6.80;91.04;97150.78;2294477;70;20307;-81
2020/12/12 06:45:48;;;;;;;1.34;1.24;;;;;;;6.80;90.83;97158.50;2290337;70;20155;-81
2020/12/12 06:49:08;;;;;;;2.09;1.58;;;;;;;6.79;90.62;97169.72;2295803;70;20315;-82
2020/12/12 06:52:27;;;;;;;2.09;1.55;;;;;;;6.78;90.73;97163.72;2296828;70;20317;-82
2020/12/12 06:55:29;;;;;;;;;;;;;;;6.81;90.77;97170.53;2301845;70;20293;-81
2020/12/12 06:58:30;;;;;;;1.90;1.70;;;;;;;6.82;90.67;97169.63;2298461;70;20196;-81
2020/12/12 07:01:33;;;;;;;1.64;1.46;;;;;;;6.81;90.60;97176.53;2298623;70;20155;-82
2020/12/12 07:04:36;;;;;;;2.25;1.67;;;;;;;6.80;90.65;97174.00;2289465;70;20431;-80
2020/12/12 07:07:38;;;;;;;1.50;1.40;;;;;;;6.80;90.62;97177.41;2291405;70;20305;-82
2020/12/12 07:10:43;;;;;;;1.56;1.40;;;;;;;6.81;90.78;97183.41;2291773;70;20298;-79
2020/12/12 07:13:45;;;;;;;1.77;1.23;;;;;;;6.82;90.75;97187.69;2288339;70;20323;-80
2020/12/12 07:16:55;;;;;;;1.42;1.15;;;;;;;6.82;90.67;97192.84;2290533;70;20347;-78
2020/12/12 07:19:58;;;;;;;2.59;1.44;;;;;;;6.84;90.80;97201.44;2290413;70;20315;-77
2020/12/12 07:26:10;;;;;;;0.91;0.89;;;;;;;6.86;90.78;97218.56;2305304;69;20349;-78
2020/12/12 07:29:12;;;;;;;1.51;1.15;;;;;;;6.86;90.63;97218.56;2299657;69;20291;-81
2020/12/12 07:32:14;;;;;;;2.08;1.04;;;;;;;6.85;90.70;97227.19;2299521;69;20300;-78
2020/12/12 07:35:16;;;;;;;2.40;1.31;;;;;;;6.88;90.89;97226.25;2300323;69;20417;-75
2020/12/12 07:38:17;;;;;;;1.50;0.99;;;;;;;6.89;90.78;97233.09;2301480;69;20315;-79
2020/12/12 07:41:20;;;;;;;2.59;1.00;;;;;;;6.90;90.81;97235.63;2300542;69;20851;-74
2020/12/12 07:44:22;;;;;;;1.16;0.94;;;;;;;6.93;90.71;97243.28;2299865;69;20312;-74
2020/12/12 07:47:24;;;;;;;2.22;1.00;;;;;;;6.97;90.55;97246.66;2298818;69;20826;-76
2020/12/12 07:50:26;;;;;;;2.11;1.20;;;;;;;6.96;90.55;97245.78;2300259;69;20291;-76
2020/12/12 07:53:28;;;;;;;2.28;1.13;;;;;;;6.96;90.57;97260.44;2300463;69;20825;-80
2020/12/12 07:56:30;;;;;;;1.20;1.10;;;;;;;6.99;90.71;97260.34;2307574;69;20291;-82
2020/12/12 07:59:32;;;;;;;2.04;1.61;;;;;;;6.98;90.47;97264.66;2307332;69;20780;-77
2020/12/12 08:02:33;;;;;;;2.21;1.17;;;;;;;7.00;90.58;97272.38;2301186;69;20828;-76
2020/12/12 08:05:36;;;;;;;1.29;1.09;;;;;;;7.01;90.62;97274.09;2297784;69;20292;-77
2020/12/12 08:08:38;;;;;;;2.08;1.10;;;;;;;7.04;90.69;97278.31;2299456;69;20339;-77
2020/12/12 08:11:42;;;;;;;1.17;0.95;;;;;;;7.07;90.71;97278.25;2297788;69;20700;-81
2020/12/12 08:14:45;;;;;;;3.01;1.24;;;;;;;7.07;90.58;97285.97;2300838;69;20377;-82
2020/12/12 08:17:47;;;;;;;2.26;1.06;;;;;;;7.08;90.59;97285.94;2297851;69;20312;-77
2020/12/12 08:20:49;;;;;;;3.94;1.48;;;;;;;7.11;90.59;97291.03;2299172;69;20288;-77
2020/12/12 08:23:51;;;;;;;1.30;1.20;;;;;;;7.15;90.56;97302.97;2297024;69;20301;-77
2020/12/12 08:26:52;;;;;;;2.55;1.54;;;;;;;7.20;90.52;97308.03;2297363;69;20279;-77
2020/12/12 08:29:57;;;;;;;2.79;1.26;;;;;;;7.24;90.46;97310.50;2298218;69;20299;-77
2020/12/12 08:33:09;;;;;;;1.60;1.21;;;;;;;7.25;90.44;97312.19;2299110;69;20364;-77
2020/12/12 08:36:29;;;;;;;1.80;1.64;;;;;;;7.28;90.42;97314.69;2298236;69;20309;-78
2020/12/12 08:39:31;;;;;;;2.08;1.59;;;;;;;7.33;90.40;97321.47;2296774;69;20576;-78
2020/12/12 08:42:32;;;;;;;2.11;1.48;;;;;;;7.36;90.43;97323.97;2297708;69;20287;-78
2020/12/12 08:45:42;;;;;;;1.90;1.40;;;;;;;7.39;90.36;97327.34;2299623;69;20321;-77
2020/12/12 08:48:44;;;;;;;1.36;1.26;;;;;;;7.43;90.32;97334.13;2299539;69;20553;-77
2020/12/12 08:51:52;;;;;;;2.71;1.31;;;;;;;7.45;90.30;97334.06;2298749;69;20334;-78
2020/12/12 08:54:58;;;;;;;3.06;1.60;;;;;;;7.47;90.26;97343.47;2298692;69;20276;-78
2020/12/12 08:58:04;;;;;;;1.30;1.20;;;;;;;7.46;90.06;97352.09;2300548;69;20313;-78
2020/12/12 09:01:12;;;;;;;1.40;1.30;;;;;;;7.48;90.19;97350.34;2297963;69;20353;-77
2020/12/12 09:04:20;;;;;;;1.50;1.38;;;;;;;7.51;90.14;97352.84;2298241;69;20291;-79
2020/12/12 09:07:22;;;;;;;1.33;1.20;;;;;;;7.53;90.14;97357.94;2297592;69;20904;-78
2020/12/12 09:10:23;;;;;;;1.50;1.40;;;;;;;7.51;nan;97365.75;2298202;69;20303;-79
2020/12/12 09:13:25;;;;;;;2.24;1.10;;;;;;;7.54;90.15;97367.41;2298804;69;20378;-78
2020/12/12 09:16:27;;;;;;;2.28;1.20;;;;;;;7.55;90.16;97376.88;2298461;69;20299;-78
2020/12/12 09:19:30;;;;;;;1.61;1.11;;;;;;;7.56;90.16;97375.97;2299515;69;20321;-78
2020/12/12 09:22:32;;;;;;;1.35;1.20;;;;;;;7.58;90.23;97385.38;2292666;69;20307;-77
2020/12/12 09:25:33;;;;;;;1.65;1.50;;;;;;;7.62;90.27;97393.06;2291704;69;20308;-78
2020/12/12 09:28:36;;;;;;;2.64;1.30;;;;;;;7.64;90.26;97399.03;2299936;69;20313;-78
2020/12/12 09:31:38;;;;;;;2.51;1.21;;;;;;;7.67;90.25;97397.22;2298450;69;20321;-78
2020/12/12 09:34:40;;;;;;;1.42;1.20;;;;;;;7.71;90.26;97409.16;2299658;69;20335;-78
2020/12/12 09:37:42;;;;;;;3.45;1.20;;;;;;;7.76;90.31;97403.91;2299435;69;20860;-78
2020/12/12 09:40:46;;;;;;;3.44;1.31;;;;;;;7.81;90.29;97412.38;2297909;69;20553;-78
2020/12/12 09:43:48;;;;;;;1.30;1.00;;;;;;;7.85;90.28;97420.00;2297408;69;20291;-78
2020/12/12 09:46:50;;;;;;;1.40;1.00;;;;;;;7.89;90.33;97419.03;2297768;69;20657;-78
2020/12/12 09:49:51;;;;;;;2.39;0.82;;;;;;;7.95;90.31;97430.97;2296865;69;20287;-78
2020/12/12 09:52:53;;;;;;;2.26;0.90;;;;;;;7.98;90.31;97433.47;2301516;69;20291;-78
2020/12/12 09:55:56;;;;;;;1.34;0.90;;;;;;;8.02;90.30;97441.97;2298042;69;21135;-78
2020/12/12 09:58:57;;;;;;;1.04;0.60;;;;;;;8.02;90.36;97441.97;2296501;69;20368;-78
2020/12/12 10:01:59;;;;;;;0.64;0.61;;;;;;;8.05;90.36;97455.66;2297126;69;20343;-78
2020/12/12 10:05:00;;;;;;;0.86;0.86;;;;;;;8.07;90.17;97456.47;2298292;69;20307;-78
2020/12/12 10:08:04;;;;;;;1.59;0.60;;;;;;;8.09;90.10;97459.03;2297486;69;20296;-79
2020/12/12 10:11:06;;;;;;;0.85;0.70;;;;;;;8.10;nan;97460.75;2296370;69;20290;-78
2020/12/12 10:14:08;;;;;;;0.65;0.49;;;;;;;8.12;90.06;97464.13;2301024;69;20364;-78
2020/12/12 10:17:09;;;;;;;0.43;0.43;;;;;;;8.15;89.99;97462.31;2296751;69;20331;-80
2020/12/12 10:20:12;;;;;;;0.36;0.36;;;;;;;8.14;89.82;97470.94;2298036;69;20423;-78
2020/12/12 10:23:13;;;;;;;0.50;0.41;;;;;;;8.17;89.71;97475.19;2296550;69;20885;-79
2020/12/12 10:26:15;;;;;;;0.46;0.45;;;;;;;8.18;89.60;97474.31;2297309;69;20683;-78
2020/12/12 10:29:16;;;;;;;0.73;0.44;;;;;;;8.16;89.57;97483.84;2294461;69;20299;-79
2020/12/12 10:32:18;;;;;;;1.05;0.45;;;;;;;8.13;89.44;97482.19;2297670;69;20312;-77
2020/12/12 10:35:20;;;;;;;0.40;0.40;;;;;;;8.14;89.47;97489.03;2297161;69;20353;-77
2020/12/12 10:38:21;;;;;;;0.76;0.40;;;;;;;8.08;89.16;97489.22;2295649;69;20325;-77
2020/12/12 10:41:28;;;;;;;0.30;0.30;;;;;;;8.07;89.13;97496.97;2295966;69;20414;-77
2020/12/12 10:44:29;;;;;;;0.65;0.44;;;;;;;8.05;89.08;97502.19;2297028;69;20362;-77
2020/12/12 10:47:32;;;;;;;0.40;0.40;;;;;;;8.00;88.61;97505.78;2295873;69;20319;-77
2020/12/12 10:50:34;;;;;;;0.30;0.30;;;;;;;7.95;88.75;97502.47;2297010;69;20305;-78
2020/12/12 10:53:35;;;;;;;0.46;0.40;;;;;;;7.93;88.65;97512.00;2296175;69;21034;-78
2020/12/12 10:56:37;;;;;;;0.40;0.40;;;;;;;7.94;88.67;97518.84;2296847;69;20291;-77
2020/12/12 10:59:42;;;;;;;1.24;0.40;;;;;;;7.97;88.69;97526.53;2297703;69;20311;-77
2020/12/12 11:02:44;;;;;;;0.74;0.40;;;;;;;7.98;88.67;97525.66;2294558;69;20327;-78
2020/12/12 11:05:46;;;;;;;0.90;0.46;;;;;;;7.95;88.54;97531.75;2295387;69;20331;-77
2020/12/12 11:08:47;;;;;;;0.40;0.40;;;;;;;7.94;88.51;97531.78;2296502;69;20766;-78
2020/12/12 11:11:49;;;;;;;0.51;0.40;;;;;;;7.95;88.70;97529.16;2296955;69;20688;-77
2020/12/12 11:14:54;;;;;;;0.32;0.32;;;;;;;7.99;88.87;97529.91;2294913;69;20769;-77
2020/12/12 11:17:56;;;;;;;0.30;0.30;;;;;;;8.02;89.05;97533.28;2295734;69;20510;-78
2020/12/12 11:20:58;;;;;;;0.66;0.31;;;;;;;8.05;88.93;97532.34;2296518;69;21398;-78
2020/12/12 11:24:00;;;;;;;2.11;1.67;;;;;;;8.07;88.90;97534.00;2295122;69;20441;-77
2020/12/12 11:27:02;;;;;;;31.79;15.46;;;;;;;8.12;88.74;97544.25;2294843;69;20339;-77
2020/12/12 11:30:07;;;;;;;44.99;21.51;;;;;;;8.11;88.62;97540.81;2290027;69;20284;-78
2020/12/12 11:33:09;;;;;;;20.60;10.15;;;;;;;8.12;88.55;97539.94;2294325;69;20335;-77
2020/12/12 11:49:23;;;;;;;1.81;1.40;;;;;;;8.23;88.47;97562.91;2296747;69;20394;-78
2020/12/12 11:52:25;;;;;;;1.48;1.13;;;;;;;8.23;88.40;97567.25;2296534;69;20333;-79
2020/12/12 11:55:27;;;;;;;3.74;1.02;;;;;;;8.25;88.39;97570.63;2296465;69;20315;-79
2020/12/12 11:58:29;;;;;;;0.81;0.80;;;;;;;8.24;88.29;97574.97;2294874;69;20317;-79
2020/12/12 12:01:30;;;;;;;1.27;1.00;;;;;;;8.25;88.33;97576.66;2297019;69;20300;-79
2020/12/12 12:04:32;;;;;;;1.02;1.00;;;;;;;8.26;88.22;97580.09;2298237;69;20323;-79
2020/12/12 12:07:41;;;;;;;1.10;0.88;;;;;;;8.25;88.25;97587.00;2297729;69;20416;-80
2020/12/12 12:10:53;;;;;;;2.03;0.71;;;;;;;8.29;88.32;97588.66;2296978;69;20317;-80
2020/12/12 12:14:01;;;;;;;1.94;0.79;;;;;;;8.30;88.28;97595.53;2297152;69;20171;-80
2020/12/12 12:17:03;;;;;;;0.88;0.88;;;;;;;8.30;88.34;97597.25;2296556;69;20313;-79
2020/12/12 12:20:06;;;;;;;2.14;1.51;;;;;;;8.28;88.43;97597.28;2298832;69;20262;-79
2020/12/12 12:23:07;;;;;;;1.26;0.82;;;;;;;8.29;88.50;97601.56;2297698;69;20287;-80
2020/12/12 12:26:09;;;;;;;1.00;0.79;;;;;;;8.29;88.50;97604.16;2297486;69;20325;-80
2020/12/12 12:29:13;;;;;;;1.40;0.99;;;;;;;8.29;88.47;97603.31;2302161;69;20333;-79
2020/12/12 12:32:14;;;;;;;1.63;1.46;;;;;;;8.26;88.42;97606.81;2297066;69;20307;-79
2020/12/12 12:35:18;;;;;;;2.31;1.33;;;;;;;8.25;88.48;97612.84;2297321;69;20356;-78
2020/12/12 12:38:20;;;;;;;1.23;1.17;;;;;;;8.27;88.62;97618.88;2296992;69;20344;-81
2020/12/12 12:41:22;;;;;;;1.61;1.40;;;;;;;8.30;88.74;97629.13;2298209;69;20331;-77
2020/12/12 12:44:24;;;;;;;2.51;1.67;;;;;;;8.32;88.68;97632.53;2297796;69;20620;-79
2020/12/12 12:47:26;;;;;;;1.61;1.40;;;;;;;8.33;88.58;97634.22;2297458;69;20390;-78
2020/12/12 12:50:33;;;;;;;1.83;1.65;;;;;;;8.39;88.73;97641.84;2298133;69;20387;-80
2020/12/12 12:53:35;;;;;;;2.59;1.33;;;;;;;8.42;88.66;97643.50;2295607;69;20692;-79
2020/12/12 12:56:38;;;;;;;1.35;1.25;;;;;;;8.47;88.63;97650.31;2297153;69;20315;-79
2020/12/12 12:59:41;;;;;;;3.51;1.71;;;;;;;8.48;88.45;97649.41;2297573;69;20377;-79
2020/12/12 13:02:43;;;;;;;2.35;1.54;;;;;;;8.50;88.43;97659.72;2296796;69;20298;-79
2020/12/12 13:05:44;;;;;;;2.97;1.76;;;;;;;8.47;88.31;97654.63;2298373;69;20276;-78
2020/12/12 13:08:46;;;;;;;2.17;1.89;;;;;;;8.47;88.41;97659.78;2296501;69;20325;-78
2020/12/12 13:11:48;;;;;;;2.17;1.80;;;;;;;8.47;88.43;97665.81;2299503;69;20299;-78
2020/12/12 13:14:49;;;;;;;2.10;1.80;;;;;;;8.50;88.63;97666.63;2298778;69;20279;-78
2020/12/12 13:17:51;;;;;;;4.46;2.03;;;;;;;8.53;88.54;97669.13;2299947;69;20322;-79
2020/12/12 13:21:06;;;;;;;2.21;1.81;;;;;;;8.53;88.50;97667.41;2297640;69;20331;-78
2020/12/12 13:24:08;;;;;;;2.15;1.79;;;;;;;8.56;88.63;97669.91;2298156;69;20349;-78
2020/12/12 13:27:09;;;;;;;3.83;2.09;;;;;;;8.57;88.77;97666.44;2298868;69;20312;-78
2020/12/12 13:30:19;;;;;;;4.30;2.03;;;;;;;8.60;88.82;97675.84;2299142;69;20291;-78
2020/12/12 13:33:21;;;;;;;3.24;2.21;;;;;;;8.61;88.75;97685.31;2298148;69;20323;-79
2020/12/12 13:36:23;;;;;;;3.42;1.64;;;;;;;8.63;88.67;97687.00;2297735;69;20337;-78
2020/12/12 13:39:29;;;;;;;2.95;2.29;;;;;;;8.66;88.71;97691.25;2297591;69;20372;-79
2020/12/12 13:42:34;;;;;;;4.29;2.13;;;;;;;8.69;88.68;97699.78;2298102;69;20341;-80
2020/12/12 13:45:36;;;;;;;3.84;1.75;;;;;;;8.67;88.27;97709.31;2297886;69;20311;-78
2020/12/12 13:48:37;;;;;;;3.80;1.76;;;;;;;8.69;88.32;97714.44;2298191;69;20284;-79
2020/12/12 13:51:39;;;;;;;2.96;2.01;;;;;;;8.70;88.37;97710.97;2298341;69;20299;-78
2020/12/12 13:54:41;;;;;;;2.60;2.00;;;;;;;8.70;88.32;97714.41;2300036;69;20327;-78
2020/12/12 13:57:43;;;;;;;3.85;2.17;;;;;;;8.70;88.21;97717.00;2298130;69;21088;-79
2020/12/12 14:00:44;;;;;;;5.35;2.59;;;;;;;8.68;88.36;97717.94;2298353;69;20296;-79
2020/12/12 14:03:46;;;;;;;3.91;2.51;;;;;;;8.70;88.43;97721.31;2297606;69;20311;-79
2020/12/12 14:06:57;;;;;;;3.72;2.40;;;;;;;8.73;88.63;97734.19;2299127;69;20300;-79
2020/12/12 14:23:20;;;;;;;5.55;2.96;;;;;;;8.73;88.83;97750.56;2297401;69;20279;-78
2020/12/12 14:26:42;;;;;;;4.74;3.14;;;;;;;8.71;88.92;97754.06;2298110;69;20292;-79
2020/12/12 14:29:43;;;;;;;4.64;3.14;;;;;;;8.71;89.00;97759.25;2297872;69;20323;-79
2020/12/12 14:32:45;;;;;;;4.88;2.90;;;;;;;8.69;89.07;97763.63;2298964;69;20309;-79
2020/12/12 14:35:47;;;;;;;5.54;2.81;;;;;;;8.68;89.14;97780.88;2298893;69;20291;-79
2020/12/12 14:38:49;;;;;;;6.39;4.20;;;;;;;8.67;89.25;97780.91;2299040;69;20299;-77
2020/12/12 14:41:52;;;;;;;3.54;2.36;;;;;;;8.64;89.29;97793.91;2298608;69;20341;-77
2020/12/12 14:44:54;;;;;;;4.45;2.41;;;;;;;8.61;89.25;97793.97;2298842;69;20291;-77
2020/12/12 14:47:55;;;;;;;5.38;2.74;;;;;;;8.59;89.37;97799.19;2296978;69;20372;-80
2020/12/12 14:50:57;;;;;;;6.71;2.61;;;;;;;8.57;89.39;97807.84;2297379;69;20291;-78
2020/12/12 14:53:59;;;;;;;4.63;2.54;;;;;;;8.55;89.44;97801.88;2297130;69;20317;-78
2020/12/12 14:57:03;;;;;;;6.41;3.06;;;;;;;8.51;89.40;97816.63;2297603;69;20396;-78
2020/12/12 15:00:06;;;;;;;8.19;2.71;;;;;;;8.49;89.52;97810.63;2298572;69;20275;-78
2020/12/12 15:03:11;;;;;;;5.35;1.98;;;;;;;8.44;89.52;97815.91;2298561;69;20341;-77